PAVC

Details ICAO PAVC (KVC)
Name KING COVE
Region USA (Alaska)
Timezone America/Nome (UTC-8.0)
Plans Departing 1
Arriving 4
Stats Elevation 155 ft / 47 m (AMSL)
Location 55.116347° -162.266228°
Runways 1
Magnetic Variation 10.844° E
Sunrise 2018-05-26 14:24:51 UTC / 2018-05-26 06:24:51 Local
Sunset 2018-05-27 07:10:20 UTC / 2018-05-26 23:10:20 Local
Advertisement - Login to hide

Runways

ID Width Length Bearing (true) Bearing (mag) Surface Threshold Offset Overrun Length
07 115 ft / 35 m 3,350 ft / 1,021 m 84.99° 74.15° Gravel 0 ft / 0 m 0 ft / 0 m
25 115 ft / 35 m 3,350 ft / 1,021 m 265.01° 254.17° Gravel 0 ft / 0 m 0 ft / 0 m

Map

Weather


0- 5 10 15 20 25 30 35+ Temperature / ° C

Clouds and Precipitation
Forecast for 2018-05-26 18:00 UTC. Updated an hour ago

Ground ~20,000 ft ~40,000 ft Winds

METAR

PAVC 261756Z AUTO 27018G24KT 4SM -RA BR OVC015 06/03 A2986 RMK AO2 PK WND 28026/1740 RAE12B28 SLP119 P0000 60000 T00560033 10056 20044 51009

TAF

Not found

Frequencies

Recorded 118.32 MHz ASOS
Unicom 122.90 MHz CTAF
Warning: Do not use this data for real-world aviation or navigation. No guarantee of current accuracy is given.